Time;durP1;ratioP1;P1;durP2;ratioP2;P2;SDS_P1;SDS_P2;PMS_P1;PMS_P2;Temp;Humidity;BMP_temperature;BMP_pressure;BME280_temperature;BME280_humidity;BME280_pressure;Samples;Min_cycle;Max_cycle;Signal;HPM_P1;HPM_P2
2021/05/13 00:01:06;;;;;;;4.40;4.10;;;13.70;99.90;;;;;;5072176;28;20211;-60
2021/05/13 00:03:33;;;;;;;3.47;3.27;;;13.70;99.90;;;;;;5071811;28;20452;-61
2021/05/13 00:05:59;;;;;;;4.43;4.13;;;13.70;99.90;;;;;;5067970;28;20473;-61
2021/05/13 00:08:24;;;;;;;3.53;3.33;;;13.80;99.90;;;;;;5072374;28;20472;-61
2021/05/13 00:10:50;;;;;;;3.97;3.67;;;13.90;99.90;;;;;;5071660;28;20178;-61
2021/05/13 00:13:16;;;;;;;4.03;3.73;;;13.90;99.90;;;;;;5072136;28;20336;-61
2021/05/13 00:15:42;;;;;;;3.70;3.50;;;13.90;99.90;;;;;;5075934;28;20644;-61
2021/05/13 00:18:09;;;;;;;3.77;3.47;;;13.90;99.90;;;;;;5070639;28;20663;-61
2021/05/13 00:20:39;;;;;;;4.00;3.70;;;13.90;99.90;;;;;;5071525;28;20461;-60
2021/05/13 00:23:05;;;;;;;4.33;4.03;;;13.90;99.90;;;;;;5071679;28;20489;-61
2021/05/13 00:25:31;;;;;;;4.40;4.10;;;13.80;99.90;;;;;;5071009;28;20448;-61
2021/05/13 00:27:57;;;;;;;4.00;3.70;;;13.80;99.90;;;;;;5072069;28;20595;-60
2021/05/13 00:30:23;;;;;;;5.03;4.63;;;13.70;99.90;;;;;;5070868;28;20221;-60
2021/05/13 00:32:49;;;;;;;4.20;3.90;;;13.80;99.90;;;;;;5070171;28;20251;-61
2021/05/13 00:35:17;;;;;;;5.07;4.67;;;13.80;99.90;;;;;;5069974;28;20472;-60
2021/05/13 00:37:44;;;;;;;5.73;5.17;;;13.80;99.90;;;;;;5068041;28;20867;-61
2021/05/13 00:40:11;;;;;;;5.00;4.60;;;13.50;99.90;;;;;;5071377;28;20439;-61
2021/05/13 00:42:37;;;;;;;4.93;4.53;;;13.90;99.90;;;;;;5071797;28;20432;-61
2021/05/13 00:45:05;;;;;;;4.43;4.13;;;13.90;99.90;;;;;;5070402;28;20518;-61
2021/05/13 00:47:30;;;;;;;4.60;4.30;;;14.00;99.90;;;;;;5070995;28;20452;-61
2021/05/13 00:49:56;;;;;;;5.00;4.37;;;13.90;99.90;;;;;;5070728;28;20449;-61
2021/05/13 00:52:24;;;;;;;4.20;3.90;;;13.80;99.90;;;;;;5070430;28;20221;-61
2021/05/13 00:54:50;;;;;;;4.47;4.17;;;13.70;99.90;;;;;;5076473;28;20545;-61
2021/05/13 00:57:16;;;;;;;4.57;4.27;;;13.60;99.90;;;;;;5070533;28;20434;-62
2021/05/13 00:59:48;;;;;;;4.20;3.90;;;13.60;99.90;;;;;;5070472;28;20495;-62
2021/05/13 01:02:14;;;;;;;4.03;3.73;;;13.60;99.90;;;;;;5068578;28;20487;-61
2021/05/13 01:04:40;;;;;;;3.97;3.67;;;13.50;99.90;;;;;;5070883;28;21013;-61
2021/05/13 01:07:06;;;;;;;4.23;3.93;;;13.40;99.90;;;;;;5071179;28;20190;-61
2021/05/13 01:09:33;;;;;;;3.80;3.50;;;13.60;99.90;;;;;;5070720;28;20452;-60
2021/05/13 01:12:03;;;;;;;3.60;3.30;;;13.60;99.90;;;;;;5067234;28;20447;-62
2021/05/13 01:17:03;;;;;;;2.83;2.63;;;13.60;99.90;;;;;;5070225;28;21003;-61
2021/05/13 01:19:29;;;;;;;3.00;2.80;;;13.70;99.90;;;;;;5070907;28;20790;-59
2021/05/13 01:21:56;;;;;;;2.33;2.23;;;13.60;99.90;;;;;;5070053;28;20510;-61
2021/05/13 01:24:22;;;;;;;2.17;2.07;;;13.70;99.90;;;;;;5070944;28;20942;-60
2021/05/13 01:26:49;;;;;;;2.30;2.20;;;13.70;99.90;;;;;;5071095;28;20449;-61
2021/05/13 01:29:20;;;;;;;2.30;2.20;;;13.60;99.90;;;;;;5070381;28;20433;-60
2021/05/13 01:31:47;;;;;;;2.60;2.40;;;13.60;99.90;;;;;;5068983;28;20862;-61
2021/05/13 01:34:12;;;;;;;3.63;2.53;;;13.70;99.90;;;;;;5066949;28;20470;-60
2021/05/13 01:36:38;;;;;;;2.00;1.90;;;13.60;99.90;;;;;;5070235;28;20520;-61
2021/05/13 01:39:06;;;;;;;2.27;2.13;;;13.40;99.90;;;;;;5070569;28;20186;-61
2021/05/13 01:41:32;;;;;;;2.20;2.10;;;13.40;99.90;;;;;;5066644;28;20259;-61
2021/05/13 01:43:58;;;;;;;2.10;2.00;;;13.40;99.90;;;;;;5069364;28;20791;-60
2021/05/13 01:46:23;;;;;;;2.37;2.17;;;13.40;99.90;;;;;;5073318;28;20531;-60
2021/05/13 01:48:49;;;;;;;2.80;2.60;;;13.40;99.90;;;;;;5074442;28;20684;-62
2021/05/13 01:51:15;;;;;;;3.10;2.90;;;13.50;99.90;;;;;;5074011;28;20273;-61
2021/05/13 01:53:42;;;;;;;3.40;2.90;;;13.50;99.90;;;;;;5073047;28;20203;-60
2021/05/13 01:56:09;;;;;;;2.60;2.47;;;13.50;99.90;;;;;;5073375;28;20184;-61
2021/05/13 01:58:35;;;;;;;2.80;2.60;;;13.50;99.90;;;;;;5073614;28;20440;-61
2021/05/13 02:01:00;;;;;;;2.83;2.63;;;13.50;99.90;;;;;;5073194;28;20429;-61
2021/05/13 02:03:26;;;;;;;2.70;2.57;;;13.50;99.90;;;;;;5071836;28;20454;-61
2021/05/13 02:05:53;;;;;;;3.30;3.00;;;13.50;99.90;;;;;;5074086;28;20179;-60
2021/05/13 02:08:20;;;;;;;2.47;2.37;;;13.50;99.90;;;;;;5074389;28;20408;-60
2021/05/13 02:10:45;;;;;;;2.50;2.40;;;13.50;99.90;;;;;;5073271;28;20440;-62
2021/05/13 02:13:11;;;;;;;3.03;2.83;;;13.40;99.90;;;;;;5073504;28;21008;-60
2021/05/13 02:15:36;;;;;;;2.97;2.77;;;13.40;99.90;;;;;;5072967;28;20203;-61
2021/05/13 02:18:02;;;;;;;2.80;2.60;;;13.40;99.90;;;;;;5073841;28;20183;-61
2021/05/13 02:20:28;;;;;;;3.10;2.90;;;13.50;99.90;;;;;;5073235;28;20190;-60
2021/05/13 02:22:55;;;;;;;2.50;2.37;;;13.50;99.90;;;;;;5074059;28;20176;-61
2021/05/13 02:25:20;;;;;;;2.90;2.70;;;13.60;99.90;;;;;;5073828;28;20301;-61
2021/05/13 02:27:46;;;;;;;3.10;2.90;;;13.60;99.90;;;;;;5073820;28;20442;-61
2021/05/13 02:30:14;;;;;;;3.13;2.90;;;13.40;99.90;;;;;;5073137;28;20464;-60
2021/05/13 02:32:40;;;;;;;3.37;3.17;;;13.50;99.90;;;;;;5072919;28;20191;-59
2021/05/13 02:35:07;;;;;;;2.80;2.60;;;13.50;99.90;;;;;;5073480;28;20461;-60
2021/05/13 02:37:33;;;;;;;3.80;3.50;;;13.50;99.90;;;;;;5073671;28;20446;-60
2021/05/13 02:39:58;;;;;;;3.33;3.13;;;13.50;99.90;;;;;;5072570;28;20770;-61
2021/05/13 02:42:24;;;;;;;4.63;3.60;;;13.40;99.90;;;;;;5071845;28;20178;-62
2021/05/13 02:44:50;;;;;;;3.93;3.63;;;13.50;99.90;;;;;;5072610;28;20185;-61
2021/05/13 02:47:15;;;;;;;4.10;3.80;;;13.40;99.90;;;;;;5073132;28;20218;-62
2021/05/13 02:49:41;;;;;;;5.30;4.80;;;13.50;99.90;;;;;;5072636;28;20192;-61
2021/05/13 02:52:06;;;;;;;5.27;4.87;;;13.60;99.90;;;;;;5072388;28;20186;-61
2021/05/13 02:54:32;;;;;;;5.70;4.30;;;13.60;99.90;;;;;;5073125;28;20286;-59
2021/05/13 02:56:58;;;;;;;5.47;5.07;;;13.60;99.90;;;;;;5072511;28;20284;-60
2021/05/13 02:59:45;;;;;;;5.87;5.37;;;13.60;99.90;;;;;;5072978;28;20444;-61
2021/05/13 03:02:12;;;;;;;5.87;4.90;;;13.50;99.90;;;;;;5071875;28;20168;-61
2021/05/13 03:04:38;;;;;;;7.97;6.60;;;13.60;99.90;;;;;;5073124;28;20530;-60
2021/05/13 03:07:04;;;;;;;7.27;6.57;;;13.60;99.90;;;;;;5073112;28;20506;-61
2021/05/13 03:09:30;;;;;;;8.00;7.30;;;13.60;99.90;;;;;;5072201;28;20535;-61
2021/05/13 03:11:56;;;;;;;7.73;7.03;;;13.60;99.90;;;;;;5071462;28;20444;-61
2021/05/13 03:14:22;;;;;;;8.43;7.63;;;13.60;99.90;;;;;;5072561;28;21284;-59
2021/05/13 03:16:47;;;;;;;6.90;6.13;;;13.50;99.90;;;;;;5072893;28;20533;-61
2021/05/13 03:19:19;;;;;;;7.60;6.73;;;13.60;99.90;;;;;;5072318;28;20206;-61
2021/05/13 03:21:46;;;;;;;7.17;6.53;;;13.60;99.90;;;;;;5072785;28;20204;-61
2021/05/13 03:24:31;;;;;;;9.90;7.90;;;13.60;99.90;;;;;;5073104;28;20523;-61
2021/05/13 03:27:09;;;;;;;7.60;6.90;;;13.60;99.90;;;;;;5071977;28;20452;-61
2021/05/13 03:29:35;;;;;;;9.10;8.20;;;13.60;99.90;;;;;;5071262;28;20774;-61
2021/05/13 03:32:00;;;;;;;8.17;7.40;;;13.60;99.90;;;;;;5084776;28;20583;-61
2021/05/13 03:34:26;;;;;;;9.47;8.57;;;13.50;99.90;;;;;;5072623;28;20209;-60
2021/05/13 03:36:52;;;;;;;9.90;8.90;;;13.50;99.90;;;;;;5072443;28;20270;-61
2021/05/13 03:39:17;;;;;;;9.10;8.20;;;13.50;99.90;;;;;;5071786;28;20955;-61
2021/05/13 03:41:43;;;;;;;8.40;7.60;;;13.60;99.90;;;;;;5071273;28;20277;-61
2021/05/13 03:44:08;;;;;;;10.97;7.73;;;13.50;99.90;;;;;;5072130;28;20244;-61
2021/05/13 03:46:34;;;;;;;12.17;7.50;;;13.50;99.90;;;;;;5072197;28;20213;-61
2021/05/13 03:48:59;;;;;;;9.33;8.37;;;13.50;99.90;;;;;;5071278;28;20691;-60
2021/05/13 03:51:25;;;;;;;9.57;8.67;;;13.50;99.90;;;;;;5071907;28;20183;-61
2021/05/13 03:53:51;;;;;;;9.80;8.83;;;13.60;99.90;;;;;;5070398;28;20217;-61
2021/05/13 03:56:16;;;;;;;9.17;8.30;;;13.60;99.90;;;;;;5071803;28;20320;-60
2021/05/13 03:59:06;;;;;;;9.57;7.13;;;13.50;99.90;;;;;;5071684;28;20179;-62
2021/05/13 04:02:04;;;;;;;9.00;8.10;;;13.50;99.90;;;;;;5069593;28;20509;-60
2021/05/13 04:04:16;;;;;;;8.30;7.50;;;13.50;99.90;;;;;;5071282;28;20929;-62
2021/05/13 04:06:42;;;;;;;7.50;6.63;;;13.60;99.90;;;;;;5071980;28;20521;-61
2021/05/13 04:09:09;;;;;;;7.50;6.90;;;13.70;99.90;;;;;;5067634;28;20194;-61
2021/05/13 04:11:36;;;;;;;8.43;7.63;;;13.70;99.90;;;;;;5068248;28;20449;-62
2021/05/13 04:14:03;;;;;;;8.53;7.70;;;13.70;99.90;;;;;;5069980;28;20461;-61
2021/05/13 04:16:29;;;;;;;8.83;7.87;;;13.60;99.90;;;;;;5072084;28;20942;-62
2021/05/13 04:18:55;;;;;;;8.00;7.20;;;13.60;99.90;;;;;;5070635;28;20462;-61
2021/05/13 04:21:21;;;;;;;8.10;7.30;;;13.60;99.90;;;;;;5070332;28;20428;-60
2021/05/13 04:23:46;;;;;;;8.23;7.00;;;13.60;99.90;;;;;;5071496;28;20451;-61
2021/05/13 04:26:12;;;;;;;7.83;7.20;;;13.70;99.90;;;;;;5071704;28;20186;-60
2021/05/13 04:28:37;;;;;;;7.80;6.50;;;13.70;99.90;;;;;;5071149;28;20178;-60
2021/05/13 04:31:09;;;;;;;8.30;7.50;;;13.70;99.90;;;;;;5049047;28;21092;-61
2021/05/13 04:33:35;;;;;;;7.90;7.20;;;13.70;99.90;;;;;;5047631;28;20439;-60
2021/05/13 04:36:00;;;;;;;10.27;8.17;;;13.70;99.90;;;;;;5048144;28;20337;-61
2021/05/13 04:38:26;;;;;;;10.13;7.80;;;13.60;99.90;;;;;;5047840;28;20242;-62
2021/05/13 04:40:52;;;;;;;8.07;6.70;;;13.60;99.90;;;;;;5047887;28;20271;-60
2021/05/13 04:43:19;;;;;;;13.23;8.50;;;13.60;99.90;;;;;;5048082;28;20172;-61
2021/05/13 04:45:45;;;;;;;10.63;8.77;;;13.60;99.90;;;;;;5046191;28;20443;-61
2021/05/13 04:48:15;;;;;;;10.73;8.07;;;13.60;99.90;;;;;;5047602;28;20530;-61
2021/05/13 04:50:40;;;;;;;8.00;7.20;;;13.60;99.90;;;;;;5048149;28;20457;-62
2021/05/13 04:53:11;;;;;;;11.00;8.17;;;13.60;99.90;;;;;;5046923;28;20442;-63
2021/05/13 04:55:38;;;;;;;8.03;7.33;;;13.90;99.90;;;;;;5046609;28;20538;-61
2021/05/13 04:58:05;;;;;;;8.43;7.63;;;13.60;99.90;;;;;;5047848;28;20445;-62
2021/05/13 05:00:31;;;;;;;8.33;7.53;;;13.60;99.90;;;;;;5047081;28;20839;-60
2021/05/13 05:02:56;;;;;;;9.10;8.17;;;13.60;99.90;;;;;;5046724;28;20442;-61
2021/05/13 05:05:23;;;;;;;8.87;7.73;;;13.50;99.90;;;;;;5045768;28;20184;-61
2021/05/13 05:07:49;;;;;;;10.50;7.93;;;13.60;99.90;;;;;;5047078;28;20249;-61
2021/05/13 05:10:15;;;;;;;8.23;7.30;;;13.70;99.90;;;;;;5048014;28;21007;-61
2021/05/13 05:12:40;;;;;;;10.00;7.90;;;13.70;99.90;;;;;;5045217;28;20514;-61
2021/05/13 05:15:06;;;;;;;9.27;8.33;;;13.70;99.90;;;;;;5061869;28;20557;-62
2021/05/13 05:17:32;;;;;;;8.17;7.37;;;13.70;99.90;;;;;;5047037;28;20270;-61
2021/05/13 05:19:57;;;;;;;9.37;7.63;;;13.60;99.90;;;;;;5048181;28;20443;-61
2021/05/13 05:22:23;;;;;;;7.53;6.83;;;13.50;99.90;;;;;;5046956;28;20282;-61
2021/05/13 05:24:49;;;;;;;8.70;7.53;;;13.50;99.90;;;;;;5046673;28;20272;-61
2021/05/13 05:27:14;;;;;;;8.27;7.50;;;13.60;99.90;;;;;;5046333;28;20227;-62
2021/05/13 05:29:39;;;;;;;7.40;6.70;;;13.60;99.90;;;;;;5046678;28;20223;-62
2021/05/13 05:32:06;;;;;;;7.13;6.43;;;13.60;99.90;;;;;;5046588;28;20665;-61
2021/05/13 05:34:31;;;;;;;6.70;6.10;;;13.70;99.90;;;;;;5046460;28;20206;-61
2021/05/13 05:36:57;;;;;;;7.10;6.50;;;13.70;99.90;;;;;;5046478;28;20476;-61
2021/05/13 05:39:22;;;;;;;6.57;5.93;;;13.70;99.90;;;;;;5048346;28;20187;-61
2021/05/13 05:41:48;;;;;;;6.20;5.60;;;13.50;99.90;;;;;;5036827;28;20232;-61
2021/05/13 05:44:14;;;;;;;7.50;6.80;;;13.50;99.90;;;;;;5033072;28;20649;-61
2021/05/13 05:46:40;;;;;;;7.40;6.70;;;13.50;99.90;;;;;;5032709;28;20276;-62
2021/05/13 05:49:06;;;;;;;7.13;6.43;;;13.60;99.90;;;;;;5032544;28;20464;-60
2021/05/13 05:51:32;;;;;;;5.83;5.33;;;13.70;99.90;;;;;;5034725;28;20495;-61
2021/05/13 05:53:57;;;;;;;6.10;5.57;;;13.60;99.90;;;;;;5033477;28;20181;-62
2021/05/13 05:56:23;;;;;;;5.00;4.60;;;13.50;99.90;;;;;;5031310;28;20695;-61
2021/05/13 05:58:48;;;;;;;4.80;4.40;;;13.50;99.90;;;;;;5032957;28;20179;-61
2021/05/13 06:01:14;;;;;;;4.90;4.50;;;13.30;99.90;;;;;;5034490;28;20187;-62
2021/05/13 06:03:39;;;;;;;4.43;4.13;;;13.30;99.90;;;;;;5032133;28;20176;-62
2021/05/13 06:06:05;;;;;;;4.67;4.27;;;13.30;99.90;;;;;;5032725;28;20187;-61
2021/05/13 06:08:30;;;;;;;4.90;4.47;;;13.30;99.90;;;;;;5033021;28;20587;-62
2021/05/13 06:10:56;;;;;;;4.87;4.37;;;13.30;99.90;;;;;;5034660;28;20336;-62
2021/05/13 06:13:21;;;;;;;4.00;3.60;;;13.30;99.90;;;;;;5031363;28;20187;-62
2021/05/13 06:15:47;;;;;;;3.87;3.57;;;13.40;99.90;;;;;;5030669;28;20262;-61
2021/05/13 06:18:12;;;;;;;3.90;3.50;;;13.30;99.90;;;;;;5032678;28;20183;-62
2021/05/13 06:20:38;;;;;;;4.93;2.30;;;13.30;99.90;;;;;;5031048;28;20186;-62
2021/05/13 06:23:04;;;;;;;2.80;2.57;;;13.30;99.90;;;;;;5032818;28;20200;-62
2021/05/13 06:25:29;;;;;;;2.30;2.10;;;13.40;99.90;;;;;;5032291;28;20184;-62
2021/05/13 06:27:57;;;;;;;2.83;2.33;;;13.80;99.90;;;;;;5032696;28;20291;-63
2021/05/13 06:30:22;;;;;;;3.13;2.60;;;13.20;99.90;;;;;;5032329;28;20300;-63
2021/05/13 06:32:49;;;;;;;3.03;2.27;;;13.20;99.90;;;;;;5031459;28;20438;-63
2021/05/13 06:35:16;;;;;;;2.60;2.40;;;13.10;99.90;;;;;;5031648;28;20187;-62
2021/05/13 06:37:41;;;;;;;2.70;2.17;;;13.10;99.90;;;;;;5032138;28;20441;-63
2021/05/13 06:40:08;;;;;;;2.87;2.60;;;13.10;99.90;;;;;;5033742;28;20446;-62
2021/05/13 06:42:34;;;;;;;2.93;2.53;;;13.10;99.90;;;;;;5032204;28;20615;-62
2021/05/13 06:44:59;;;;;;;2.87;2.67;;;13.10;99.90;;;;;;5031278;28;20490;-63
2021/05/13 06:47:25;;;;;;;2.80;1.97;;;13.20;99.90;;;;;;5033154;28;20478;-62
2021/05/13 06:49:50;;;;;;;2.30;2.03;;;13.20;99.90;;;;;;5031764;28;20203;-62
2021/05/13 06:52:17;;;;;;;2.07;1.87;;;13.20;99.90;;;;;;5031403;28;20488;-62
2021/05/13 06:54:44;;;;;;;2.50;2.03;;;13.20;99.90;;;;;;5031138;28;20184;-62
2021/05/13 06:57:10;;;;;;;2.27;1.80;;;13.30;99.90;;;;;;5032567;28;20443;-62
2021/05/13 06:59:38;;;;;;;2.77;1.83;;;13.30;99.90;;;;;;5037693;28;20520;-60
2021/05/13 07:02:03;;;;;;;2.10;2.00;;;13.30;99.90;;;;;;5031094;28;20185;-61
2021/05/13 07:04:31;;;;;;;1.70;1.60;;;13.40;99.90;;;;;;5031684;28;20758;-61
2021/05/13 07:06:56;;;;;;;2.30;1.80;;;13.30;99.90;;;;;;5037807;28;20669;-63
2021/05/13 07:09:22;;;;;;;2.10;1.77;;;13.10;99.90;;;;;;5031680;28;20459;-63
2021/05/13 07:11:48;;;;;;;2.37;2.17;;;13.10;99.90;;;;;;5031377;28;20191;-61
2021/05/13 07:14:13;;;;;;;2.10;1.93;;;13.10;99.90;;;;;;5030441;28;20681;-62
2021/05/13 07:16:39;;;;;;;1.90;1.80;;;13.00;99.90;;;;;;5033902;28;20185;-63
2021/05/13 07:19:05;;;;;;;4.33;2.10;;;13.00;99.90;;;;;;5031064;28;20245;-63
2021/05/13 07:21:31;;;;;;;2.47;2.27;;;13.00;99.90;;;;;;5030988;28;20177;-62
2021/05/13 07:23:57;;;;;;;2.60;2.40;;;13.10;99.90;;;;;;5030621;28;20469;-63
2021/05/13 07:26:23;;;;;;;2.40;2.10;;;13.20;99.90;;;;;;5031211;28;21056;-61
2021/05/13 07:28:48;;;;;;;3.60;2.30;;;13.20;99.90;;;;;;5030808;28;20181;-62
2021/05/13 07:31:14;;;;;;;3.83;1.77;;;13.30;99.90;;;;;;5030827;28;20276;-62
2021/05/13 07:33:40;;;;;;;2.27;2.07;;;13.20;99.90;;;;;;5031011;28;20188;-61
2021/05/13 07:36:06;;;;;;;2.20;2.00;;;13.00;99.90;;;;;;5031046;28;20186;-62
2021/05/13 07:38:33;;;;;;;2.00;1.90;;;13.00;99.90;;;;;;5046458;28;20229;-62
2021/05/13 07:40:59;;;;;;;2.33;2.13;;;13.10;99.90;;;;;;5030547;28;20438;-62
2021/05/13 07:43:26;;;;;;;2.13;1.93;;;13.20;99.90;;;;;;5030631;28;20766;-63
2021/05/13 07:45:51;;;;;;;2.47;2.27;;;13.20;99.90;;;;;;5030773;28;20546;-63
2021/05/13 07:48:17;;;;;;;1.97;1.87;;;13.10;99.90;;;;;;5030902;28;20870;-61
2021/05/13 07:50:43;;;;;;;2.97;2.60;;;13.00;99.90;;;;;;5030987;28;20975;-61
2021/05/13 07:53:09;;;;;;;2.17;1.97;;;13.00;99.90;;;;;;5030603;28;20496;-61
2021/05/13 07:55:36;;;;;;;2.33;2.13;;;12.80;99.90;;;;;;5031512;28;20184;-60
2021/05/13 07:58:02;;;;;;;2.30;2.10;;;12.80;99.90;;;;;;5030055;28;20439;-60
2021/05/13 08:00:28;;;;;;;2.77;2.57;;;13.10;99.90;;;;;;5029648;28;20499;-60
2021/05/13 08:02:54;;;;;;;3.17;2.97;;;13.20;99.90;;;;;;5030360;28;20935;-59
2021/05/13 08:05:19;;;;;;;2.90;2.60;;;13.20;99.90;;;;;;5029499;28;20547;-61
2021/05/13 08:07:45;;;;;;;3.00;2.70;;;13.30;99.90;;;;;;5030677;28;20172;-61
2021/05/13 08:10:11;;;;;;;3.00;2.70;;;13.20;99.90;;;;;;5029673;28;20246;-60
2021/05/13 08:12:37;;;;;;;3.03;2.40;;;13.20;99.90;;;;;;5030679;28;20559;-62
2021/05/13 08:15:06;;;;;;;2.93;2.73;;;13.30;99.90;;;;;;5030443;28;20441;-62
2021/05/13 08:17:31;;;;;;;3.00;2.80;;;13.20;99.90;;;;;;5030278;28;20528;-62
2021/05/13 08:19:57;;;;;;;4.03;2.70;;;13.10;99.90;;;;;;5030745;28;20434;-62
2021/05/13 08:22:22;;;;;;;2.50;2.30;;;13.10;99.90;;;;;;5033274;28;20200;-61
2021/05/13 08:24:48;;;;;;;3.27;2.97;;;13.10;99.90;;;;;;5030295;28;20187;-62
2021/05/13 08:27:14;;;;;;;3.23;2.97;;;13.10;99.90;;;;;;5030578;28;20191;-62
2021/05/13 08:29:39;;;;;;;2.97;2.77;;;13.00;99.90;;;;;;5029168;28;20954;-62
2021/05/13 08:32:06;;;;;;;2.80;2.60;;;13.00;99.90;;;;;;5030754;28;20274;-60
2021/05/13 08:34:32;;;;;;;2.80;2.50;;;13.00;99.90;;;;;;5029910;28;20234;-62
2021/05/13 08:36:58;;;;;;;2.70;2.50;;;12.90;99.90;;;;;;5030565;28;20437;-61
2021/05/13 08:39:23;;;;;;;4.20;2.97;;;12.90;99.90;;;;;;5033164;28;20561;-61
2021/05/13 08:41:49;;;;;;;3.00;2.70;;;13.00;99.90;;;;;;5029589;28;20183;-61
2021/05/13 08:44:17;;;;;;;3.37;3.07;;;13.00;99.90;;;;;;5044982;28;20445;-61
2021/05/13 08:46:42;;;;;;;3.03;2.70;;;13.00;99.90;;;;;;5033777;28;20266;-61
2021/05/13 08:49:08;;;;;;;3.40;3.10;;;13.00;99.90;;;;;;5039094;28;20452;-61
2021/05/13 08:51:36;;;;;;;3.13;2.83;;;13.00;99.90;;;;;;5026818;28;20198;-61
2021/05/13 08:54:02;;;;;;;3.70;2.97;;;13.00;99.90;;;;;;5025402;28;20306;-61
2021/05/13 08:56:29;;;;;;;3.10;2.90;;;13.10;99.90;;;;;;5032952;28;20448;-62
2021/05/13 08:59:02;;;;;;;2.73;2.53;;;13.10;99.90;;;;;;5033573;28;20645;-62
2021/05/13 09:01:28;;;;;;;2.90;2.70;;;13.00;99.90;;;;;;5028206;28;20959;-61
2021/05/13 09:03:53;;;;;;;3.23;2.93;;;13.00;99.90;;;;;;5030392;28;20529;-62
2021/05/13 09:09:07;;;;;;;3.00;2.80;;;12.80;99.90;;;;;;5033760;28;20330;-62
2021/05/13 09:11:32;;;;;;;3.27;2.97;;;12.80;99.90;;;;;;5028480;28;20449;-66
2021/05/13 09:14:00;;;;;;;2.80;2.60;;;12.80;99.90;;;;;;5029413;28;20417;-61
2021/05/13 09:16:31;;;;;;;2.53;2.33;;;12.80;99.90;;;;;;5046934;28;20234;-60
2021/05/13 09:18:57;;;;;;;2.93;2.63;;;12.80;99.90;;;;;;5052968;28;20447;-62
2021/05/13 09:21:24;;;;;;;3.07;2.80;;;12.80;99.90;;;;;;5055336;28;20788;-61
2021/05/13 09:23:50;;;;;;;3.47;3.17;;;12.80;99.90;;;;;;5055449;28;20855;-61
2021/05/13 09:26:18;;;;;;;3.00;2.80;;;12.70;99.90;;;;;;5054185;28;20444;-61
2021/05/13 09:28:46;;;;;;;4.00;3.70;;;12.70;99.90;;;;;;5054995;28;20433;-62
2021/05/13 09:31:51;;;;;;;3.63;3.33;;;12.60;99.90;;;;;;5055256;28;20471;-63
2021/05/13 09:34:16;;;;;;;4.40;4.00;;;12.70;99.90;;;;;;5033169;28;20889;-61
2021/05/13 09:36:42;;;;;;;3.87;3.57;;;12.60;99.90;;;;;;5032862;28;20517;-62
2021/05/13 09:39:27;;;;;;;6.90;4.57;;;12.80;99.90;;;;;;5043567;28;20652;-62
2021/05/13 10:16:26;;;;;;;3.90;3.50;;;12.80;99.90;;;;;;5049416;28;20540;-63
2021/05/13 10:18:57;;;;;;;3.90;3.40;;;12.80;99.90;;;;;;5048372;28;20421;-62
2021/05/13 10:21:26;;;;;;;3.13;2.83;;;12.70;99.90;;;;;;5049428;28;20475;-62
2021/05/13 10:23:56;;;;;;;4.10;3.13;;;12.50;99.90;;;;;;5049193;28;20554;-62
2021/05/13 10:26:37;;;;;;;4.93;3.40;;;12.40;99.90;;;;;;5048150;28;20431;-63
2021/05/13 10:29:23;;;;;;;3.97;2.77;;;12.30;99.90;;;;;;5049241;28;20437;-62
2021/05/13 10:32:00;;;;;;;3.47;3.17;;;12.20;99.90;;;;;;5045306;28;20580;-62
2021/05/13 10:34:41;;;;;;;4.67;3.70;;;12.00;99.90;;;;;;5049137;28;20437;-62
2021/05/13 10:37:17;;;;;;;4.73;3.30;;;12.00;99.90;;;;;;5049433;28;20430;-62
2021/05/13 10:40:08;;;;;;;4.70;3.83;;;12.10;99.90;;;;;;5049175;28;20443;-63
2021/05/13 10:42:36;;;;;;;4.80;3.77;;;12.10;99.90;;;;;;5046266;28;20450;-62
2021/05/13 10:45:24;;;;;;;4.40;3.90;;;11.90;99.90;;;;;;5048924;28;20466;-62
2021/05/13 10:48:26;;;;;;;6.50;4.43;;;12.10;99.90;;;;;;5047676;28;20564;-63
2021/05/13 10:50:58;;;;;;;4.63;3.27;;;12.20;99.90;;;;;;5037265;28;20438;-62
2021/05/13 10:53:45;;;;;;;5.17;3.97;;;12.00;99.90;;;;;;5048451;28;20489;-62
2021/05/13 10:56:28;;;;;;;4.33;3.93;;;12.20;99.90;;;;;;5048671;28;20921;-62
2021/05/13 10:58:59;;;;;;;6.83;3.63;;;12.20;99.90;;;;;;5048557;28;20472;-62
2021/05/13 11:01:34;;;;;;;3.87;3.57;;;12.30;99.90;;;;;;5048874;28;20430;-62
2021/05/13 11:04:21;;;;;;;4.70;3.40;;;12.40;99.90;;;;;;5048596;28;20602;-61
2021/05/13 11:06:57;;;;;;;4.33;3.90;;;12.50;99.90;;;;;;5048632;28;20765;-61
2021/05/13 11:09:38;;;;;;;4.20;3.53;;;12.40;99.90;;;;;;5048814;28;20471;-62
2021/05/13 11:12:18;;;;;;;4.80;4.07;;;12.50;99.90;;;;;;5048747;28;20429;-62
2021/05/13 11:15:14;;;;;;;5.10;4.60;;;12.70;99.90;;;;;;5046902;28;20470;-61
2021/05/13 11:20:28;;;;;;;4.50;3.90;;;12.80;99.90;;;;;;5035376;28;20892;-63
2021/05/13 11:22:56;;;;;;;5.83;5.30;;;12.80;99.90;;;;;;5035308;28;20423;-62
2021/05/13 11:25:26;;;;;;;5.30;4.30;;;12.80;99.90;;;;;;5034900;28;20458;-62
2021/05/13 11:27:52;;;;;;;6.10;4.03;;;12.80;99.90;;;;;;5034858;28;20780;-61
2021/05/13 11:30:24;;;;;;;4.87;4.47;;;12.70;99.90;;;;;;5034910;28;20513;-62
2021/05/13 11:32:51;;;;;;;4.53;3.93;;;12.70;99.90;;;;;;5034808;28;21651;-61
2021/05/13 11:35:19;;;;;;;5.60;4.33;;;12.70;99.90;;;;;;5034855;28;20405;-62
2021/05/13 11:37:50;;;;;;;5.13;3.97;;;12.80;99.90;;;;;;5034744;28;20446;-63
2021/05/13 11:40:28;;;;;;;3.90;3.40;;;13.00;99.90;;;;;;5034790;28;20521;-62
2021/05/13 11:43:16;;;;;;;4.47;3.73;;;12.90;99.90;;;;;;5034558;28;20412;-63
2021/05/13 11:45:42;;;;;;;4.40;3.40;;;12.90;99.90;;;;;;5034330;28;20569;-63
2021/05/13 11:48:21;;;;;;;3.97;3.57;;;13.00;99.90;;;;;;5034313;28;20488;-60
2021/05/13 11:50:47;;;;;;;3.73;3.43;;;14.70;99.90;;;;;;5034078;28;20575;-59
2021/05/13 11:53:14;;;;;;;4.20;3.80;;;13.10;99.90;;;;;;5034352;28;20428;-62
2021/05/13 11:55:41;;;;;;;5.23;3.40;;;13.10;99.90;;;;;;5034002;28;20276;-59
2021/05/13 11:58:09;;;;;;;4.33;4.00;;;13.10;99.90;;;;;;5034112;28;20403;-59
2021/05/13 12:00:35;;;;;;;4.23;3.83;;;13.20;99.90;;;;;;5033879;28;20948;-61
2021/05/13 12:03:11;;;;;;;3.60;2.97;;;13.30;99.90;;;;;;5033794;28;20434;-62
2021/05/13 12:05:52;;;;;;;3.53;3.23;;;13.30;99.90;;;;;;5032683;28;20469;-60
2021/05/13 12:08:19;;;;;;;3.80;3.40;;;13.20;99.90;;;;;;5032490;28;20457;-59
2021/05/13 12:10:45;;;;;;;4.30;3.80;;;14.30;99.90;;;;;;5033740;28;20434;-59
2021/05/13 12:13:11;;;;;;;6.90;3.70;;;13.30;99.90;;;;;;5033776;28;20436;-61
2021/05/13 12:15:37;;;;;;;4.20;3.83;;;13.50;99.90;;;;;;5033641;28;20230;-60
2021/05/13 12:18:04;;;;;;;3.80;3.40;;;13.50;99.90;;;;;;5033779;28;20767;-60
2021/05/13 12:20:31;;;;;;;3.90;3.53;;;13.50;99.90;;;;;;5033820;28;20409;-61
2021/05/13 12:22:58;;;;;;;3.47;3.17;;;13.50;99.90;;;;;;5033771;28;20434;-58
2021/05/13 12:25:24;;;;;;;4.03;3.73;;;13.50;99.90;;;;;;5033689;28;20438;-61
2021/05/13 12:27:49;;;;;;;4.83;4.43;;;13.60;99.90;;;;;;5032667;28;20460;-61
2021/05/13 12:30:18;;;;;;;5.90;4.40;;;13.30;99.90;;;;;;5032606;28;20297;-61
2021/05/13 12:32:44;;;;;;;6.33;4.23;;;13.10;99.90;;;;;;5033704;28;20280;-61
2021/05/13 12:35:29;;;;;;;4.67;4.10;;;13.20;99.90;;;;;;5033498;28;21100;-62
2021/05/13 12:38:14;;;;;;;4.70;4.03;;;13.30;99.90;;;;;;5032263;28;20275;-59
2021/05/13 12:40:41;;;;;;;3.70;3.40;;;13.50;99.90;;;;;;5031077;28;20444;-59
2021/05/13 12:43:11;;;;;;;4.00;3.63;;;13.60;99.90;;;;;;5030375;28;20935;-59
2021/05/13 12:45:51;;;;;;;3.83;3.53;;;13.50;99.90;;;;;;5030929;28;20938;-60
2021/05/13 12:48:28;;;;;;;4.90;4.50;;;13.50;99.90;;;;;;5030578;28;20446;-59
2021/05/13 12:51:01;;;;;;;5.43;4.10;;;13.50;99.90;;;;;;5030504;28;20472;-58
2021/05/13 12:53:28;;;;;;;3.67;3.20;;;13.50;99.90;;;;;;5030483;28;20445;-59
2021/05/13 12:55:55;;;;;;;3.80;3.50;;;13.50;99.90;;;;;;5029393;28;20543;-59
2021/05/13 12:58:26;;;;;;;3.87;3.53;;;13.50;99.90;;;;;;5030270;28;20469;-59
2021/05/13 13:00:57;;;;;;;3.93;3.63;;;13.40;99.90;;;;;;5030416;28;20438;-59
2021/05/13 13:03:34;;;;;;;4.90;3.07;;;13.30;99.90;;;;;;5030060;28;20537;-59
2021/05/13 13:06:10;;;;;;;3.67;3.37;;;13.30;99.90;;;;;;5030292;28;20471;-58
2021/05/13 13:08:38;;;;;;;4.10;3.80;;;13.30;99.90;;;;;;5029211;28;20440;-60
2021/05/13 13:11:03;;;;;;;4.10;3.70;;;13.30;99.90;;;;;;5028589;28;20945;-60
2021/05/13 13:13:46;;;;;;;3.97;3.50;;;13.30;99.90;;;;;;5030218;28;20409;-58
2021/05/13 13:16:23;;;;;;;5.20;4.70;;;13.30;99.90;;;;;;5028940;28;20311;-60
2021/05/13 13:19:00;;;;;;;4.00;3.63;;;13.30;99.90;;;;;;5030091;28;20525;-58
2021/05/13 13:21:26;;;;;;;5.30;3.83;;;13.30;99.90;;;;;;5028891;28;20421;-59
2021/05/13 13:23:51;;;;;;;4.27;3.70;;;13.30;99.90;;;;;;5029781;28;20451;-58
2021/05/13 13:26:17;;;;;;;3.87;3.50;;;13.30;99.90;;;;;;5029311;28;20530;-58
2021/05/13 13:28:43;;;;;;;5.00;4.53;;;13.30;99.90;;;;;;5026358;28;20180;-58
2021/05/13 13:31:12;;;;;;;5.80;5.30;;;13.30;99.90;;;;;;5029271;28;20512;-60
2021/05/13 13:33:38;;;;;;;5.23;4.73;;;13.20;99.90;;;;;;5024596;28;20284;-60